sensor_id;sensor_type;location;lat;lon;timestamp;P1;durP1;ratioP1;P2;durP2;ratioP2
74213;SDS011;62576;55.694;37.494;2022-11-18T00:02:05;9.07;;;3.47;;
74213;SDS011;62576;55.694;37.494;2022-11-18T00:04:34;9.43;;;3.28;;
74213;SDS011;62576;55.694;37.494;2022-11-18T00:07:04;9.38;;;3.20;;
74213;SDS011;62576;55.694;37.494;2022-11-18T00:09:34;8.25;;;3.25;;
74213;SDS011;62576;55.694;37.494;2022-11-18T00:12:05;8.77;;;3.28;;
74213;SDS011;62576;55.694;37.494;2022-11-18T00:14:53;8.80;;;3.50;;
74213;SDS011;62576;55.694;37.494;2022-11-18T00:17:22;10.73;;;3.33;;
74213;SDS011;62576;55.694;37.494;2022-11-18T00:19:52;8.32;;;3.00;;
74213;SDS011;62576;55.694;37.494;2022-11-18T00:22:22;7.40;;;3.20;;
74213;SDS011;62576;55.694;37.494;2022-11-18T00:24:52;8.00;;;3.05;;
74213;SDS011;62576;55.694;37.494;2022-11-18T00:27:23;8.25;;;2.60;;
74213;SDS011;62576;55.694;37.494;2022-11-18T00:29:53;9.40;;;3.38;;
74213;SDS011;62576;55.694;37.494;2022-11-18T00:32:23;9.90;;;3.45;;
74213;SDS011;62576;55.694;37.494;2022-11-18T00:34:53;8.43;;;3.22;;
74213;SDS011;62576;55.694;37.494;2022-11-18T00:37:23;8.68;;;3.33;;
74213;SDS011;62576;55.694;37.494;2022-11-18T00:39:52;6.57;;;2.72;;
74213;SDS011;62576;55.694;37.494;2022-11-18T00:42:24;7.95;;;3.03;;
74213;SDS011;62576;55.694;37.494;2022-11-18T00:45:26;9.00;;;3.25;;
74213;SDS011;62576;55.694;37.494;2022-11-18T00:47:56;7.82;;;3.08;;
74213;SDS011;62576;55.694;37.494;2022-11-18T00:50:26;8.18;;;3.10;;
74213;SDS011;62576;55.694;37.494;2022-11-18T00:52:55;10.05;;;3.17;;
74213;SDS011;62576;55.694;37.494;2022-11-18T00:55:25;7.57;;;2.83;;
74213;SDS011;62576;55.694;37.494;2022-11-18T00:57:56;7.45;;;3.13;;
74213;SDS011;62576;55.694;37.494;2022-11-18T01:00:26;9.15;;;3.25;;
74213;SDS011;62576;55.694;37.494;2022-11-18T01:02:56;9.48;;;3.10;;
74213;SDS011;62576;55.694;37.494;2022-11-18T01:05:25;8.52;;;2.95;;
74213;SDS011;62576;55.694;37.494;2022-11-18T01:07:55;7.78;;;3.20;;
74213;SDS011;62576;55.694;37.494;2022-11-18T01:10:25;6.70;;;2.70;;
74213;SDS011;62576;55.694;37.494;2022-11-18T01:12:56;7.78;;;3.00;;
74213;SDS011;62576;55.694;37.494;2022-11-18T01:15:44;7.15;;;2.70;;
74213;SDS011;62576;55.694;37.494;2022-11-18T01:18:19;8.52;;;3.10;;
74213;SDS011;62576;55.694;37.494;2022-11-18T01:20:51;8.18;;;3.22;;
74213;SDS011;62576;55.694;37.494;2022-11-18T01:23:21;8.10;;;2.80;;
74213;SDS011;62576;55.694;37.494;2022-11-18T01:25:51;7.75;;;3.20;;
74213;SDS011;62576;55.694;37.494;2022-11-18T01:28:23;8.00;;;2.95;;
74213;SDS011;62576;55.694;37.494;2022-11-18T01:30:53;8.27;;;3.25;;
74213;SDS011;62576;55.694;37.494;2022-11-18T01:33:23;8.23;;;3.10;;
74213;SDS011;62576;55.694;37.494;2022-11-18T01:35:52;9.48;;;3.05;;
74213;SDS011;62576;55.694;37.494;2022-11-18T01:38:22;10.93;;;3.42;;
74213;SDS011;62576;55.694;37.494;2022-11-18T01:40:52;10.57;;;3.40;;
74213;SDS011;62576;55.694;37.494;2022-11-18T01:43:24;8.30;;;3.08;;
74213;SDS011;62576;55.694;37.494;2022-11-18T01:45:54;7.65;;;3.33;;
74213;SDS011;62576;55.694;37.494;2022-11-18T01:48:25;7.63;;;2.20;;
74213;SDS011;62576;55.694;37.494;2022-11-18T01:50:59;9.23;;;3.40;;
74213;SDS011;62576;55.694;37.494;2022-11-18T01:53:32;7.90;;;3.13;;
74213;SDS011;62576;55.694;37.494;2022-11-18T01:56:05;7.70;;;3.03;;
74213;SDS011;62576;55.694;37.494;2022-11-18T01:58:40;7.35;;;3.50;;
74213;SDS011;62576;55.694;37.494;2022-11-18T02:01:13;8.50;;;3.03;;
74213;SDS011;62576;55.694;37.494;2022-11-18T02:03:43;6.60;;;3.00;;
74213;SDS011;62576;55.694;37.494;2022-11-18T02:06:14;8.80;;;3.10;;
74213;SDS011;62576;55.694;37.494;2022-11-18T02:08:46;7.68;;;3.10;;
74213;SDS011;62576;55.694;37.494;2022-11-18T02:11:17;8.10;;;3.20;;
74213;SDS011;62576;55.694;37.494;2022-11-18T02:14:07;9.70;;;3.80;;
74213;SDS011;62576;55.694;37.494;2022-11-18T02:16:41;6.88;;;2.75;;
74213;SDS011;62576;55.694;37.494;2022-11-18T02:19:25;11.93;;;4.30;;
74213;SDS011;62576;55.694;37.494;2022-11-18T02:22:13;8.15;;;3.22;;
74213;SDS011;62576;55.694;37.494;2022-11-18T02:24:58;7.47;;;3.00;;
74213;SDS011;62576;55.694;37.494;2022-11-18T02:30:52;9.15;;;3.22;;
74213;SDS011;62576;55.694;37.494;2022-11-18T02:33:27;7.75;;;3.08;;
74213;SDS011;62576;55.694;37.494;2022-11-18T02:36:04;11.77;;;3.28;;
74213;SDS011;62576;55.694;37.494;2022-11-18T02:38:42;8.48;;;3.30;;
74213;SDS011;62576;55.694;37.494;2022-11-18T02:41:15;9.57;;;3.17;;
74213;SDS011;62576;55.694;37.494;2022-11-18T02:43:48;6.10;;;3.20;;
74213;SDS011;62576;55.694;37.494;2022-11-18T02:46:25;8.48;;;3.22;;
74213;SDS011;62576;55.694;37.494;2022-11-18T02:49:00;8.07;;;2.88;;
74213;SDS011;62576;55.694;37.494;2022-11-18T02:51:35;8.45;;;3.10;;
74213;SDS011;62576;55.694;37.494;2022-11-18T02:54:06;8.73;;;3.40;;
74213;SDS011;62576;55.694;37.494;2022-11-18T02:56:38;7.60;;;2.92;;
74213;SDS011;62576;55.694;37.494;2022-11-18T02:59:10;8.00;;;2.97;;
74213;SDS011;62576;55.694;37.494;2022-11-18T03:01:41;6.88;;;3.03;;
74213;SDS011;62576;55.694;37.494;2022-11-18T03:04:12;7.53;;;3.00;;
74213;SDS011;62576;55.694;37.494;2022-11-18T03:06:47;7.90;;;2.70;;
74213;SDS011;62576;55.694;37.494;2022-11-18T03:09:23;7.55;;;2.85;;
74213;SDS011;62576;55.694;37.494;2022-11-18T03:12:00;7.50;;;2.50;;
74213;SDS011;62576;55.694;37.494;2022-11-18T03:14:41;5.80;;;2.55;;
74213;SDS011;62576;55.694;37.494;2022-11-18T03:17:18;6.90;;;3.10;;
74213;SDS011;62576;55.694;37.494;2022-11-18T03:20:00;9.70;;;2.95;;
74213;SDS011;62576;55.694;37.494;2022-11-18T03:22:39;9.25;;;2.88;;
74213;SDS011;62576;55.694;37.494;2022-11-18T03:25:13;9.25;;;3.35;;
74213;SDS011;62576;55.694;37.494;2022-11-18T03:27:51;7.00;;;2.80;;
74213;SDS011;62576;55.694;37.494;2022-11-18T03:30:26;8.13;;;3.10;;
74213;SDS011;62576;55.694;37.494;2022-11-18T03:33:01;7.38;;;3.30;;
74213;SDS011;62576;55.694;37.494;2022-11-18T03:35:36;7.82;;;2.53;;
74213;SDS011;62576;55.694;37.494;2022-11-18T03:38:10;9.48;;;3.10;;
74213;SDS011;62576;55.694;37.494;2022-11-18T03:40:45;9.32;;;3.28;;
74213;SDS011;62576;55.694;37.494;2022-11-18T03:43:19;8.23;;;2.95;;
74213;SDS011;62576;55.694;37.494;2022-11-18T03:45:55;7.97;;;3.25;;
74213;SDS011;62576;55.694;37.494;2022-11-18T03:48:33;9.55;;;3.05;;
74213;SDS011;62576;55.694;37.494;2022-11-18T03:51:07;8.82;;;3.00;;
74213;SDS011;62576;55.694;37.494;2022-11-18T03:53:41;6.88;;;3.03;;
74213;SDS011;62576;55.694;37.494;2022-11-18T03:56:14;7.43;;;3.30;;
74213;SDS011;62576;55.694;37.494;2022-11-18T03:58:48;6.13;;;2.67;;
74213;SDS011;62576;55.694;37.494;2022-11-18T04:01:23;10.25;;;3.47;;
74213;SDS011;62576;55.694;37.494;2022-11-18T04:03:59;6.65;;;3.08;;
74213;SDS011;62576;55.694;37.494;2022-11-18T04:06:30;6.45;;;2.55;;
74213;SDS011;62576;55.694;37.494;2022-11-18T04:09:06;9.32;;;3.22;;
74213;SDS011;62576;55.694;37.494;2022-11-18T04:11:40;7.28;;;3.10;;
74213;SDS011;62576;55.694;37.494;2022-11-18T04:14:33;7.47;;;3.00;;
74213;SDS011;62576;55.694;37.494;2022-11-18T04:17:07;7.88;;;2.90;;
74213;SDS011;62576;55.694;37.494;2022-11-18T04:19:39;10.15;;;3.20;;
74213;SDS011;62576;55.694;37.494;2022-11-18T04:22:10;6.93;;;3.00;;
74213;SDS011;62576;55.694;37.494;2022-11-18T04:24:40;8.63;;;3.00;;
74213;SDS011;62576;55.694;37.494;2022-11-18T04:27:10;7.97;;;3.22;;
74213;SDS011;62576;55.694;37.494;2022-11-18T04:29:41;7.53;;;3.15;;
74213;SDS011;62576;55.694;37.494;2022-11-18T04:32:10;11.77;;;3.58;;
74213;SDS011;62576;55.694;37.494;2022-11-18T04:34:42;7.82;;;3.42;;
74213;SDS011;62576;55.694;37.494;2022-11-18T04:37:12;8.00;;;3.30;;
74213;SDS011;62576;55.694;37.494;2022-11-18T04:39:39;9.43;;;3.28;;
74213;SDS011;62576;55.694;37.494;2022-11-18T04:42:09;9.15;;;3.17;;
74213;SDS011;62576;55.694;37.494;2022-11-18T04:44:39;11.10;;;3.30;;
74213;SDS011;62576;55.694;37.494;2022-11-18T04:47:09;8.38;;;3.10;;
74213;SDS011;62576;55.694;37.494;2022-11-18T04:49:38;11.77;;;3.25;;
74213;SDS011;62576;55.694;37.494;2022-11-18T04:54:42;7.07;;;2.92;;
74213;SDS011;62576;55.694;37.494;2022-11-18T04:57:15;8.02;;;3.22;;
74213;SDS011;62576;55.694;37.494;2022-11-18T04:59:45;7.65;;;3.05;;
74213;SDS011;62576;55.694;37.494;2022-11-18T05:02:15;9.20;;;3.50;;
74213;SDS011;62576;55.694;37.494;2022-11-18T05:04:46;6.72;;;2.92;;
74213;SDS011;62576;55.694;37.494;2022-11-18T05:07:16;7.40;;;3.05;;
74213;SDS011;62576;55.694;37.494;2022-11-18T05:09:46;8.15;;;3.10;;
74213;SDS011;62576;55.694;37.494;2022-11-18T05:12:16;7.90;;;3.13;;
74213;SDS011;62576;55.694;37.494;2022-11-18T05:15:04;8.40;;;3.17;;
74213;SDS011;62576;55.694;37.494;2022-11-18T05:17:34;7.28;;;3.30;;
74213;SDS011;62576;55.694;37.494;2022-11-18T05:20:10;9.60;;;3.53;;
74213;SDS011;62576;55.694;37.494;2022-11-18T05:22:40;8.48;;;2.92;;
74213;SDS011;62576;55.694;37.494;2022-11-18T05:25:10;7.32;;;3.05;;
74213;SDS011;62576;55.694;37.494;2022-11-18T05:27:41;7.70;;;3.05;;
74213;SDS011;62576;55.694;37.494;2022-11-18T05:30:12;8.13;;;3.45;;
74213;SDS011;62576;55.694;37.494;2022-11-18T05:32:42;8.85;;;3.50;;
74213;SDS011;62576;55.694;37.494;2022-11-18T05:35:14;9.85;;;3.30;;
74213;SDS011;62576;55.694;37.494;2022-11-18T05:37:43;6.47;;;3.17;;
74213;SDS011;62576;55.694;37.494;2022-11-18T05:40:14;8.38;;;3.17;;
74213;SDS011;62576;55.694;37.494;2022-11-18T05:42:44;9.63;;;3.50;;
74213;SDS011;62576;55.694;37.494;2022-11-18T05:45:31;8.07;;;3.08;;
74213;SDS011;62576;55.694;37.494;2022-11-18T05:48:01;8.88;;;3.58;;
74213;SDS011;62576;55.694;37.494;2022-11-18T05:50:34;8.20;;;3.10;;
74213;SDS011;62576;55.694;37.494;2022-11-18T05:53:07;9.63;;;3.45;;
74213;SDS011;62576;55.694;37.494;2022-11-18T05:55:38;10.35;;;3.35;;
74213;SDS011;62576;55.694;37.494;2022-11-18T05:58:12;9.35;;;3.33;;
74213;SDS011;62576;55.694;37.494;2022-11-18T06:00:43;7.75;;;3.30;;
74213;SDS011;62576;55.694;37.494;2022-11-18T06:03:16;9.27;;;3.20;;
74213;SDS011;62576;55.694;37.494;2022-11-18T06:05:51;9.50;;;3.45;;
74213;SDS011;62576;55.694;37.494;2022-11-18T06:08:22;8.02;;;3.10;;
74213;SDS011;62576;55.694;37.494;2022-11-18T06:10:56;10.48;;;3.70;;
74213;SDS011;62576;55.694;37.494;2022-11-18T06:13:27;7.88;;;3.22;;
74213;SDS011;62576;55.694;37.494;2022-11-18T06:16:03;8.43;;;3.05;;
74213;SDS011;62576;55.694;37.494;2022-11-18T06:18:33;9.32;;;3.38;;
74213;SDS011;62576;55.694;37.494;2022-11-18T06:21:08;9.70;;;3.30;;
74213;SDS011;62576;55.694;37.494;2022-11-18T06:23:38;8.68;;;3.05;;
74213;SDS011;62576;55.694;37.494;2022-11-18T06:26:09;7.80;;;3.30;;
74213;SDS011;62576;55.694;37.494;2022-11-18T06:28:41;8.80;;;3.45;;
74213;SDS011;62576;55.694;37.494;2022-11-18T06:31:14;7.82;;;3.22;;
74213;SDS011;62576;55.694;37.494;2022-11-18T06:33:46;10.35;;;3.90;;
74213;SDS011;62576;55.694;37.494;2022-11-18T06:36:17;8.80;;;3.15;;
74213;SDS011;62576;55.694;37.494;2022-11-18T06:38:44;9.85;;;3.78;;
74213;SDS011;62576;55.694;37.494;2022-11-18T06:41:14;11.20;;;3.60;;
74213;SDS011;62576;55.694;37.494;2022-11-18T06:43:44;9.00;;;3.45;;
74213;SDS011;62576;55.694;37.494;2022-11-18T06:46:14;10.60;;;3.38;;
74213;SDS011;62576;55.694;37.494;2022-11-18T06:49:03;7.60;;;3.28;;
74213;SDS011;62576;55.694;37.494;2022-11-18T06:51:34;8.23;;;3.47;;
74213;SDS011;62576;55.694;37.494;2022-11-18T06:54:04;9.50;;;3.70;;
74213;SDS011;62576;55.694;37.494;2022-11-18T06:56:34;10.05;;;3.70;;
74213;SDS011;62576;55.694;37.494;2022-11-18T06:59:05;8.30;;;3.22;;
74213;SDS011;62576;55.694;37.494;2022-11-18T07:01:36;9.23;;;3.70;;
74213;SDS011;62576;55.694;37.494;2022-11-18T07:04:07;10.55;;;3.83;;
74213;SDS011;62576;55.694;37.494;2022-11-18T07:06:38;11.35;;;3.33;;
74213;SDS011;62576;55.694;37.494;2022-11-18T07:09:08;8.52;;;3.65;;
74213;SDS011;62576;55.694;37.494;2022-11-18T07:11:40;12.82;;;3.88;;
74213;SDS011;62576;55.694;37.494;2022-11-18T07:14:13;11.63;;;4.00;;
74213;SDS011;62576;55.694;37.494;2022-11-18T07:16:43;10.68;;;4.18;;
74213;SDS011;62576;55.694;37.494;2022-11-18T07:19:13;9.73;;;4.18;;
74213;SDS011;62576;55.694;37.494;2022-11-18T07:21:44;10.55;;;3.78;;
74213;SDS011;62576;55.694;37.494;2022-11-18T07:24:14;6.88;;;3.08;;
74213;SDS011;62576;55.694;37.494;2022-11-18T07:26:44;7.20;;;2.67;;
74213;SDS011;62576;55.694;37.494;2022-11-18T07:29:15;9.85;;;3.45;;
74213;SDS011;62576;55.694;37.494;2022-11-18T07:31:44;8.00;;;3.47;;
74213;SDS011;62576;55.694;37.494;2022-11-18T07:34:14;9.82;;;3.65;;
74213;SDS011;62576;55.694;37.494;2022-11-18T07:36:45;8.32;;;3.22;;
74213;SDS011;62576;55.694;37.494;2022-11-18T07:39:13;8.25;;;3.78;;
74213;SDS011;62576;55.694;37.494;2022-11-18T07:41:43;10.07;;;3.92;;
74213;SDS011;62576;55.694;37.494;2022-11-18T07:44:13;8.70;;;3.80;;
74213;SDS011;62576;55.694;37.494;2022-11-18T07:46:41;10.63;;;4.00;;
74213;SDS011;62576;55.694;37.494;2022-11-18T07:49:12;9.32;;;3.95;;
74213;SDS011;62576;55.694;37.494;2022-11-18T07:51:42;9.85;;;3.42;;
74213;SDS011;62576;55.694;37.494;2022-11-18T07:54:15;9.95;;;4.15;;
74213;SDS011;62576;55.694;37.494;2022-11-18T07:56:45;10.93;;;4.00;;
74213;SDS011;62576;55.694;37.494;2022-11-18T07:59:15;10.20;;;3.70;;
74213;SDS011;62576;55.694;37.494;2022-11-18T08:01:45;9.15;;;3.95;;
74213;SDS011;62576;55.694;37.494;2022-11-18T08:04:15;12.07;;;4.05;;
74213;SDS011;62576;55.694;37.494;2022-11-18T08:06:44;10.63;;;4.00;;
74213;SDS011;62576;55.694;37.494;2022-11-18T08:09:16;9.63;;;3.85;;
74213;SDS011;62576;55.694;37.494;2022-11-18T08:11:46;10.43;;;3.97;;
74213;SDS011;62576;55.694;37.494;2022-11-18T08:14:16;10.05;;;4.15;;
74213;SDS011;62576;55.694;37.494;2022-11-18T08:16:45;11.80;;;4.32;;
74213;SDS011;62576;55.694;37.494;2022-11-18T08:19:15;11.05;;;4.45;;
74213;SDS011;62576;55.694;37.494;2022-11-18T08:21:45;8.55;;;3.83;;
74213;SDS011;62576;55.694;37.494;2022-11-18T08:24:17;10.30;;;4.28;;
74213;SDS011;62576;55.694;37.494;2022-11-18T08:26:46;10.65;;;4.55;;
74213;SDS011;62576;55.694;37.494;2022-11-18T08:29:16;10.02;;;3.92;;
74213;SDS011;62576;55.694;37.494;2022-11-18T08:31:46;10.32;;;3.97;;
74213;SDS011;62576;55.694;37.494;2022-11-18T08:34:16;9.57;;;3.70;;
74213;SDS011;62576;55.694;37.494;2022-11-18T08:36:46;10.35;;;4.25;;
74213;SDS011;62576;55.694;37.494;2022-11-18T08:39:13;11.95;;;4.20;;
74213;SDS011;62576;55.694;37.494;2022-11-18T08:41:42;11.88;;;4.43;;
74213;SDS011;62576;55.694;37.494;2022-11-18T08:44:15;12.30;;;4.20;;
74213;SDS011;62576;55.694;37.494;2022-11-18T08:46:45;10.30;;;4.35;;
74213;SDS011;62576;55.694;37.494;2022-11-18T08:49:16;9.57;;;3.90;;
74213;SDS011;62576;55.694;37.494;2022-11-18T08:51:45;12.63;;;4.13;;
74213;SDS011;62576;55.694;37.494;2022-11-18T08:54:15;10.52;;;3.85;;
74213;SDS011;62576;55.694;37.494;2022-11-18T08:56:46;11.57;;;4.63;;
74213;SDS011;62576;55.694;37.494;2022-11-18T08:59:20;9.30;;;4.28;;
74213;SDS011;62576;55.694;37.494;2022-11-18T09:01:50;9.65;;;4.20;;
74213;SDS011;62576;55.694;37.494;2022-11-18T09:04:20;9.55;;;4.45;;
74213;SDS011;62576;55.694;37.494;2022-11-18T09:06:50;13.20;;;4.22;;
74213;SDS011;62576;55.694;37.494;2022-11-18T09:09:20;10.35;;;4.78;;
74213;SDS011;62576;55.694;37.494;2022-11-18T09:11:52;11.55;;;4.38;;
74213;SDS011;62576;55.694;37.494;2022-11-18T09:14:22;10.52;;;4.55;;
74213;SDS011;62576;55.694;37.494;2022-11-18T09:16:52;12.35;;;4.25;;
74213;SDS011;62576;55.694;37.494;2022-11-18T09:19:25;11.07;;;4.20;;
74213;SDS011;62576;55.694;37.494;2022-11-18T09:21:55;11.45;;;4.47;;
74213;SDS011;62576;55.694;37.494;2022-11-18T09:24:25;10.77;;;4.60;;
74213;SDS011;62576;55.694;37.494;2022-11-18T09:26:56;11.95;;;4.60;;
74213;SDS011;62576;55.694;37.494;2022-11-18T09:29:26;12.50;;;3.85;;
74213;SDS011;62576;55.694;37.494;2022-11-18T09:31:56;13.23;;;4.80;;
74213;SDS011;62576;55.694;37.494;2022-11-18T09:34:29;10.82;;;4.50;;
74213;SDS011;62576;55.694;37.494;2022-11-18T09:36:59;11.75;;;4.60;;
74213;SDS011;62576;55.694;37.494;2022-11-18T09:42:04;11.82;;;4.47;;
74213;SDS011;62576;55.694;37.494;2022-11-18T09:44:50;11.38;;;3.95;;
74213;SDS011;62576;55.694;37.494;2022-11-18T09:47:30;8.45;;;3.72;;
74213;SDS011;62576;55.694;37.494;2022-11-18T09:50:01;11.32;;;4.30;;
74213;SDS011;62576;55.694;37.494;2022-11-18T09:52:35;8.80;;;3.88;;
74213;SDS011;62576;55.694;37.494;2022-11-18T09:55:10;9.68;;;3.92;;
74213;SDS011;62576;55.694;37.494;2022-11-18T09:57:44;11.93;;;4.40;;
74213;SDS011;62576;55.694;37.494;2022-11-18T10:00:17;12.07;;;4.13;;
74213;SDS011;62576;55.694;37.494;2022-11-18T10:02:51;12.43;;;5.03;;
74213;SDS011;62576;55.694;37.494;2022-11-18T10:05:27;10.70;;;3.90;;
74213;SDS011;62576;55.694;37.494;2022-11-18T10:08:02;11.20;;;4.63;;
74213;SDS011;62576;55.694;37.494;2022-11-18T10:10:44;9.45;;;4.22;;
74213;SDS011;62576;55.694;37.494;2022-11-18T10:13:29;10.70;;;4.22;;
74213;SDS011;62576;55.694;37.494;2022-11-18T10:16:16;12.07;;;4.38;;
74213;SDS011;62576;55.694;37.494;2022-11-18T10:18:55;10.77;;;4.50;;
74213;SDS011;62576;55.694;37.494;2022-11-18T10:21:36;13.57;;;5.00;;
74213;SDS011;62576;55.694;37.494;2022-11-18T10:24:17;8.73;;;4.25;;
74213;SDS011;62576;55.694;37.494;2022-11-18T10:26:53;10.50;;;4.65;;
74213;SDS011;62576;55.694;37.494;2022-11-18T10:29:25;10.38;;;4.68;;
74213;SDS011;62576;55.694;37.494;2022-11-18T10:31:58;11.65;;;4.85;;
74213;SDS011;62576;55.694;37.494;2022-11-18T10:34:34;10.70;;;4.70;;
74213;SDS011;62576;55.694;37.494;2022-11-18T10:37:21;11.63;;;4.70;;
74213;SDS011;62576;55.694;37.494;2022-11-18T10:39:53;10.50;;;4.50;;
74213;SDS011;62576;55.694;37.494;2022-11-18T10:42:25;13.15;;;4.57;;
74213;SDS011;62576;55.694;37.494;2022-11-18T10:45:02;10.48;;;4.70;;
74213;SDS011;62576;55.694;37.494;2022-11-18T10:47:48;11.70;;;4.93;;
74213;SDS011;62576;55.694;37.494;2022-11-18T10:50:30;10.68;;;4.38;;
74213;SDS011;62576;55.694;37.494;2022-11-18T10:53:03;11.43;;;4.63;;
74213;SDS011;62576;55.694;37.494;2022-11-18T10:55:34;10.15;;;4.65;;
74213;SDS011;62576;55.694;37.494;2022-11-18T10:58:06;13.98;;;4.45;;
74213;SDS011;62576;55.694;37.494;2022-11-18T11:00:45;9.98;;;4.80;;
74213;SDS011;62576;55.694;37.494;2022-11-18T11:03:21;11.98;;;4.72;;
74213;SDS011;62576;55.694;37.494;2022-11-18T11:09:00;12.02;;;4.80;;
74213;SDS011;62576;55.694;37.494;2022-11-18T11:11:33;11.52;;;4.38;;
74213;SDS011;62576;55.694;37.494;2022-11-18T11:14:06;11.23;;;4.78;;
74213;SDS011;62576;55.694;37.494;2022-11-18T11:19:35;10.23;;;4.68;;
74213;SDS011;62576;55.694;37.494;2022-11-18T11:22:10;11.15;;;4.75;;
74213;SDS011;62576;55.694;37.494;2022-11-18T11:24:41;11.45;;;4.90;;
74213;SDS011;62576;55.694;37.494;2022-11-18T11:27:16;10.60;;;4.47;;
74213;SDS011;62576;55.694;37.494;2022-11-18T11:35:50;10.77;;;4.38;;
74213;SDS011;62576;55.694;37.494;2022-11-18T11:38:41;9.25;;;4.53;;
74213;SDS011;62576;55.694;37.494;2022-11-18T11:41:22;11.60;;;5.28;;
74213;SDS011;62576;55.694;37.494;2022-11-18T11:44:00;11.23;;;4.28;;
74213;SDS011;62576;55.694;37.494;2022-11-18T11:46:48;9.57;;;4.38;;
74213;SDS011;62576;55.694;37.494;2022-11-18T11:49:51;11.13;;;4.40;;
74213;SDS011;62576;55.694;37.494;2022-11-18T11:52:26;11.07;;;4.53;;
74213;SDS011;62576;55.694;37.494;2022-11-18T11:55:09;10.35;;;4.38;;
74213;SDS011;62576;55.694;37.494;2022-11-18T11:57:50;10.82;;;4.30;;
74213;SDS011;62576;55.694;37.494;2022-11-18T12:00:32;10.63;;;4.50;;
74213;SDS011;62576;55.694;37.494;2022-11-18T12:03:16;9.32;;;4.55;;
74213;SDS011;62576;55.694;37.494;2022-11-18T12:06:03;10.75;;;4.32;;
74213;SDS011;62576;55.694;37.494;2022-11-18T12:08:36;13.57;;;4.82;;
74213;SDS011;62576;55.694;37.494;2022-11-18T12:11:19;11.38;;;5.10;;
74213;SDS011;62576;55.694;37.494;2022-11-18T12:13:56;10.48;;;4.40;;
74213;SDS011;62576;55.694;37.494;2022-11-18T12:16:34;12.13;;;5.57;;
74213;SDS011;62576;55.694;37.494;2022-11-18T12:19:10;11.25;;;4.45;;
74213;SDS011;62576;55.694;37.494;2022-11-18T12:21:53;14.05;;;4.68;;
74213;SDS011;62576;55.694;37.494;2022-11-18T12:24:29;10.30;;;5.82;;
74213;SDS011;62576;55.694;37.494;2022-11-18T12:27:02;12.32;;;4.63;;
74213;SDS011;62576;55.694;37.494;2022-11-18T12:29:54;10.15;;;4.70;;
74213;SDS011;62576;55.694;37.494;2022-11-18T12:32:30;10.68;;;4.15;;
74213;SDS011;62576;55.694;37.494;2022-11-18T12:35:09;10.43;;;4.22;;
74213;SDS011;62576;55.694;37.494;2022-11-18T12:38:00;9.57;;;4.22;;
74213;SDS011;62576;55.694;37.494;2022-11-18T12:40:32;13.18;;;3.90;;
74213;SDS011;62576;55.694;37.494;2022-11-18T12:55:17;11.07;;;4.70;;
74213;SDS011;62576;55.694;37.494;2022-11-18T12:57:52;9.77;;;3.90;;
74213;SDS011;62576;55.694;37.494;2022-11-18T13:00:27;10.05;;;4.43;;
74213;SDS011;62576;55.694;37.494;2022-11-18T13:03:00;10.85;;;4.68;;
74213;SDS011;62576;55.694;37.494;2022-11-18T13:05:31;12.45;;;5.65;;
74213;SDS011;62576;55.694;37.494;2022-11-18T13:08:03;12.00;;;5.38;;
74213;SDS011;62576;55.694;37.494;2022-11-18T13:10:47;11.80;;;4.40;;
74213;SDS011;62576;55.694;37.494;2022-11-18T13:13:43;12.95;;;4.65;;
74213;SDS011;62576;55.694;37.494;2022-11-18T13:16:16;11.40;;;4.95;;
74213;SDS011;62576;55.694;37.494;2022-11-18T13:19:06;11.27;;;4.07;;
74213;SDS011;62576;55.694;37.494;2022-11-18T13:21:36;11.32;;;4.30;;
74213;SDS011;62576;55.694;37.494;2022-11-18T13:24:24;9.15;;;4.28;;
74213;SDS011;62576;55.694;37.494;2022-11-18T13:26:57;8.82;;;3.80;;
74213;SDS011;62576;55.694;37.494;2022-11-18T13:29:34;11.40;;;4.75;;
74213;SDS011;62576;55.694;37.494;2022-11-18T13:32:15;13.25;;;4.95;;
74213;SDS011;62576;55.694;37.494;2022-11-18T13:34:50;10.02;;;4.28;;
74213;SDS011;62576;55.694;37.494;2022-11-18T13:37:22;11.25;;;4.63;;
74213;SDS011;62576;55.694;37.494;2022-11-18T13:39:51;10.60;;;4.05;;
74213;SDS011;62576;55.694;37.494;2022-11-18T13:42:23;10.07;;;3.95;;
74213;SDS011;62576;55.694;37.494;2022-11-18T13:44:55;9.70;;;4.70;;
74213;SDS011;62576;55.694;37.494;2022-11-18T13:47:26;11.40;;;4.63;;
74213;SDS011;62576;55.694;37.494;2022-11-18T13:50:04;15.55;;;5.13;;
74213;SDS011;62576;55.694;37.494;2022-11-18T13:52:44;9.75;;;4.22;;
74213;SDS011;62576;55.694;37.494;2022-11-18T13:55:20;13.15;;;4.93;;
74213;SDS011;62576;55.694;37.494;2022-11-18T13:57:55;11.93;;;4.20;;
74213;SDS011;62576;55.694;37.494;2022-11-18T14:00:32;11.43;;;4.90;;
74213;SDS011;62576;55.694;37.494;2022-11-18T14:03:02;12.02;;;4.53;;
74213;SDS011;62576;55.694;37.494;2022-11-18T14:05:34;10.45;;;4.63;;
74213;SDS011;62576;55.694;37.494;2022-11-18T14:08:05;12.20;;;5.68;;
74213;SDS011;62576;55.694;37.494;2022-11-18T14:10:48;10.07;;;4.47;;
74213;SDS011;62576;55.694;37.494;2022-11-18T14:13:21;13.40;;;3.90;;
74213;SDS011;62576;55.694;37.494;2022-11-18T14:15:54;10.05;;;4.38;;
74213;SDS011;62576;55.694;37.494;2022-11-18T14:18:28;12.23;;;5.10;;
74213;SDS011;62576;55.694;37.494;2022-11-18T14:21:01;10.10;;;4.80;;
74213;SDS011;62576;55.694;37.494;2022-11-18T14:23:33;10.45;;;5.03;;
74213;SDS011;62576;55.694;37.494;2022-11-18T14:26:05;8.68;;;4.05;;
74213;SDS011;62576;55.694;37.494;2022-11-18T14:28:37;11.77;;;4.18;;
74213;SDS011;62576;55.694;37.494;2022-11-18T14:31:20;10.45;;;4.47;;
74213;SDS011;62576;55.694;37.494;2022-11-18T14:36:52;12.38;;;4.60;;
74213;SDS011;62576;55.694;37.494;2022-11-18T14:39:22;11.75;;;4.32;;
74213;SDS011;62576;55.694;37.494;2022-11-18T14:41:54;10.07;;;4.22;;
74213;SDS011;62576;55.694;37.494;2022-11-18T14:44:27;10.93;;;4.75;;
74213;SDS011;62576;55.694;37.494;2022-11-18T14:46:58;10.05;;;5.18;;
74213;SDS011;62576;55.694;37.494;2022-11-18T14:49:30;9.48;;;4.10;;
74213;SDS011;62576;55.694;37.494;2022-11-18T14:52:01;10.20;;;4.57;;
74213;SDS011;62576;55.694;37.494;2022-11-18T14:54:32;9.10;;;4.35;;
74213;SDS011;62576;55.694;37.494;2022-11-18T14:57:03;8.43;;;3.90;;
74213;SDS011;62576;55.694;37.494;2022-11-18T14:59:35;13.05;;;4.53;;
74213;SDS011;62576;55.694;37.494;2022-11-18T15:02:08;11.25;;;4.55;;
74213;SDS011;62576;55.694;37.494;2022-11-18T15:04:42;10.07;;;4.40;;
74213;SDS011;62576;55.694;37.494;2022-11-18T15:07:12;11.18;;;4.55;;
74213;SDS011;62576;55.694;37.494;2022-11-18T15:09:43;10.52;;;4.72;;
74213;SDS011;62576;55.694;37.494;2022-11-18T15:12:14;9.00;;;4.28;;
74213;SDS011;62576;55.694;37.494;2022-11-18T15:14:45;10.15;;;4.50;;
74213;SDS011;62576;55.694;37.494;2022-11-18T15:17:15;8.77;;;4.13;;
74213;SDS011;62576;55.694;37.494;2022-11-18T15:19:46;9.20;;;4.10;;
74213;SDS011;62576;55.694;37.494;2022-11-18T15:22:16;8.73;;;4.05;;
74213;SDS011;62576;55.694;37.494;2022-11-18T15:24:46;7.97;;;4.00;;
74213;SDS011;62576;55.694;37.494;2022-11-18T15:27:16;11.77;;;4.60;;
74213;SDS011;62576;55.694;37.494;2022-11-18T15:29:48;9.95;;;4.28;;
74213;SDS011;62576;55.694;37.494;2022-11-18T15:32:20;10.45;;;4.40;;
74213;SDS011;62576;55.694;37.494;2022-11-18T15:34:50;8.80;;;3.80;;
74213;SDS011;62576;55.694;37.494;2022-11-18T15:37:20;9.98;;;4.07;;
74213;SDS011;62576;55.694;37.494;2022-11-18T15:39:47;9.25;;;3.88;;
74213;SDS011;62576;55.694;37.494;2022-11-18T15:42:17;10.00;;;4.18;;